Aérodrome :
LOGIN :

S'inscrire | Disclaimer

   EN    FR    IT 

 










Légende :    VFR   VFR Marginal   IFR   IFR Intensif   IFR Très Intensif
Visi : 
Plafond : 
>= 8 km
>= 3000ft
5 à 8 km
1000 à 3000 ft
1500m à 5 km
500 à 1000 ft
800 à 1500m
200 à 500 ft
< 800m
< 200 ft
Symboles :   Orages  Brouillard  Fortes neiges  Fortes précipitations  Vent > 20 kt
SIGMETs :   Divers  Orages  Givrage  Turbulence  Onde Orograph.  Cendres Volcan.






- Altitude de l'aérodrome : 17 ft
- Code IATA : CPH


EKCH - København - Kastrup (Copenhagen)

DERNIER METAR :
  • 251020Z AUTO 35010KT 9999 BKN032/// 15/10 Q1026 NOSIG

METARs EXPIRÉS :
  • 250950Z AUTO 36009KT 9999 FEW022/// BKN028/// 15/10 Q1026 NOSIG
  • 250920Z AUTO 01009KT 340V040 9999 BKN018/// 14/10 Q1025 NOSIG
  • 250850Z 01008KT 9999 BKN016 13/10 Q1025 R7/ TEMPO BKN014
  • 250820Z 01008KT 9999 BKN014 13/11 Q1024 BECMG SCT015
  • 250748Z 32005KT 9999 BKN014 13/10 Q1024 BECMG SCT015

TAF TAF EKCH
Valide du 25 à 06h jusqu'au 26 à 06h UTC


250505Z 2506/2606 29008KT 9999 BKN020
TEMPO 2506/2509 BKN012



MET'MAP, la Météo Aéronautique d'un coup d'oeil ! - Copyright ORBIFLY Décembre 2007 - Disclaimer

ORBIFLY MET'MAP TEAM :

Programmation & Développement : Alexandra Zaïnal
Sur une idée originale de : Baudouin d'Aumeries
Assistance à la programmation : Marc-Olivier Méhu
Soutien technique & logistique : Manuel Goepfert

Contact : metmap@orbifly.com




SOURCES & CREDITS :

   NOAA